Stoutsville, Ohio
Current Conditions -  °F | °C
As of 7:53 PM on Sunday 23 Nov 2014 (Local Time) from KLHQ Reporting Station
Overcast Overcast  
Wind Chill: 55°   Ceiling: 6000
Heat Index: 55°   Visibility: 10mi
Dew Point: 49°   Wind: 21mph
Humidity: 80%   Direction: 140°SE
Pressure: 29.55"   Gusts: 28mph
Location:  39.6°N, 82.83°W
Report Text: KLHQ 240053Z AUTO 14018G24KT 10SM BKN060 OVC075 13/09 A2955 RMK AO2 PK WND 13026/0041 RAE29 SLP005 P0000 T01280094
Loading
Personal Weather Stations






























Interactive Weather Map New forecast layout! Learn more

10-Day Weather Forecast

Advertisements
Track Severe Weather on mobile